Airport ICAO


13:49 UTC

18°C

Clear skies


An affordable passengers' Moving Map for your aircraft. Made for the iPad and the iPhone
More information here

LFMN Cote D'Azur


Nice FRANCE   VFR CAVOK


METAR LFMN 101330Z 16004KT CAVOK 18/05 Q1016 NOSIG 0h19min

TAF LFMN 100800Z 1009/1115 VRB10KT CAVOK BECMG 1010/1012 12008KT BECMG 1018/1020 33010KT BECMG 1109/1111 09008KT 5h49min





NOTAMS

OPEN